sensor_id;sensor_type;location;lat;lon;timestamp;temperature;humidity
5061;DHT22;2549;52.128;21.068;2023-05-07T00:02:07;9.90;99.90
5061;DHT22;2549;52.128;21.068;2023-05-07T00:04:34;9.90;99.90
5061;DHT22;2549;52.128;21.068;2023-05-07T00:07:04;9.90;99.90
5061;DHT22;2549;52.128;21.068;2023-05-07T00:09:32;9.80;99.90
5061;DHT22;2549;52.128;21.068;2023-05-07T00:11:59;9.80;99.90
5061;DHT22;2549;52.128;21.068;2023-05-07T00:14:26;9.90;99.90
5061;DHT22;2549;52.128;21.068;2023-05-07T00:16:53;9.90;99.90
5061;DHT22;2549;52.128;21.068;2023-05-07T00:19:19;9.80;99.90
5061;DHT22;2549;52.128;21.068;2023-05-07T00:21:46;9.90;99.90
5061;DHT22;2549;52.128;21.068;2023-05-07T00:24:13;9.80;99.90
5061;DHT22;2549;52.128;21.068;2023-05-07T00:26:40;9.80;99.90
5061;DHT22;2549;52.128;21.068;2023-05-07T00:29:07;9.70;99.90
5061;DHT22;2549;52.128;21.068;2023-05-07T00:31:34;9.70;99.90
5061;DHT22;2549;52.128;21.068;2023-05-07T00:34:02;9.70;99.90
5061;DHT22;2549;52.128;21.068;2023-05-07T00:36:28;9.70;99.90
5061;DHT22;2549;52.128;21.068;2023-05-07T00:38:58;9.70;99.90
5061;DHT22;2549;52.128;21.068;2023-05-07T00:41:25;9.70;99.90
5061;DHT22;2549;52.128;21.068;2023-05-07T00:43:52;9.70;99.90
5061;DHT22;2549;52.128;21.068;2023-05-07T00:46:20;9.70;99.90
5061;DHT22;2549;52.128;21.068;2023-05-07T00:48:48;9.70;99.90
5061;DHT22;2549;52.128;21.068;2023-05-07T00:51:17;9.60;99.90
5061;DHT22;2549;52.128;21.068;2023-05-07T00:53:44;9.60;99.90
5061;DHT22;2549;52.128;21.068;2023-05-07T00:56:12;9.60;99.90
5061;DHT22;2549;52.128;21.068;2023-05-07T00:58:39;9.60;99.90
5061;DHT22;2549;52.128;21.068;2023-05-07T01:01:06;9.60;99.90
5061;DHT22;2549;52.128;21.068;2023-05-07T01:03:34;9.60;99.90
5061;DHT22;2549;52.128;21.068;2023-05-07T01:06:01;9.60;99.90
5061;DHT22;2549;52.128;21.068;2023-05-07T01:08:30;9.70;99.90
5061;DHT22;2549;52.128;21.068;2023-05-07T01:10:59;9.70;99.90
5061;DHT22;2549;52.128;21.068;2023-05-07T01:13:27;9.60;99.90
5061;DHT22;2549;52.128;21.068;2023-05-07T01:15:54;9.50;99.90
5061;DHT22;2549;52.128;21.068;2023-05-07T01:18:21;9.50;99.90
5061;DHT22;2549;52.128;21.068;2023-05-07T01:20:48;9.50;99.90
5061;DHT22;2549;52.128;21.068;2023-05-07T01:23:16;9.50;99.90
5061;DHT22;2549;52.128;21.068;2023-05-07T01:25:53;9.50;99.90
5061;DHT22;2549;52.128;21.068;2023-05-07T01:28:21;9.40;99.90
5061;DHT22;2549;52.128;21.068;2023-05-07T01:30:53;9.40;99.90
5061;DHT22;2549;52.128;21.068;2023-05-07T01:33:22;9.50;99.90
5061;DHT22;2549;52.128;21.068;2023-05-07T01:35:52;9.50;99.90
5061;DHT22;2549;52.128;21.068;2023-05-07T01:38:21;9.50;99.90
5061;DHT22;2549;52.128;21.068;2023-05-07T01:40:49;9.50;99.90
5061;DHT22;2549;52.128;21.068;2023-05-07T01:43:17;9.50;99.90
5061;DHT22;2549;52.128;21.068;2023-05-07T01:45:44;9.50;99.90
5061;DHT22;2549;52.128;21.068;2023-05-07T01:48:12;9.50;99.90
5061;DHT22;2549;52.128;21.068;2023-05-07T01:50:41;9.50;99.90
5061;DHT22;2549;52.128;21.068;2023-05-07T01:53:09;9.50;99.90
5061;DHT22;2549;52.128;21.068;2023-05-07T01:55:36;9.50;99.90
5061;DHT22;2549;52.128;21.068;2023-05-07T01:58:04;9.50;99.90
5061;DHT22;2549;52.128;21.068;2023-05-07T02:00:31;9.50;99.90
5061;DHT22;2549;52.128;21.068;2023-05-07T02:02:58;9.50;99.90
5061;DHT22;2549;52.128;21.068;2023-05-07T02:05:25;9.50;99.90
5061;DHT22;2549;52.128;21.068;2023-05-07T02:07:52;9.50;99.90
5061;DHT22;2549;52.128;21.068;2023-05-07T02:10:19;9.50;99.90
5061;DHT22;2549;52.128;21.068;2023-05-07T02:12:46;9.50;99.90
5061;DHT22;2549;52.128;21.068;2023-05-07T02:15:12;9.40;99.90
5061;DHT22;2549;52.128;21.068;2023-05-07T02:18:01;9.40;99.90
5061;DHT22;2549;52.128;21.068;2023-05-07T02:20:28;9.40;99.90
5061;DHT22;2549;52.128;21.068;2023-05-07T02:22:55;9.40;99.90
5061;DHT22;2549;52.128;21.068;2023-05-07T02:25:22;9.30;99.90
5061;DHT22;2549;52.128;21.068;2023-05-07T02:27:49;9.20;99.90
5061;DHT22;2549;52.128;21.068;2023-05-07T02:30:16;9.30;99.90
5061;DHT22;2549;52.128;21.068;2023-05-07T02:32:43;9.30;99.90
5061;DHT22;2549;52.128;21.068;2023-05-07T02:35:10;9.40;99.90
5061;DHT22;2549;52.128;21.068;2023-05-07T02:37:37;9.40;99.90
5061;DHT22;2549;52.128;21.068;2023-05-07T02:40:04;9.40;99.90
5061;DHT22;2549;52.128;21.068;2023-05-07T02:42:31;9.40;99.90
5061;DHT22;2549;52.128;21.068;2023-05-07T02:44:58;9.40;99.90
5061;DHT22;2549;52.128;21.068;2023-05-07T02:47:25;9.40;99.90
5061;DHT22;2549;52.128;21.068;2023-05-07T02:49:55;9.30;99.90
5061;DHT22;2549;52.128;21.068;2023-05-07T02:52:22;9.40;99.90
5061;DHT22;2549;52.128;21.068;2023-05-07T02:54:49;9.30;99.90
5061;DHT22;2549;52.128;21.068;2023-05-07T02:57:16;9.30;99.90
5061;DHT22;2549;52.128;21.068;2023-05-07T02:59:43;9.30;99.90
5061;DHT22;2549;52.128;21.068;2023-05-07T03:02:10;9.30;99.90
5061;DHT22;2549;52.128;21.068;2023-05-07T03:04:39;9.30;99.90
5061;DHT22;2549;52.128;21.068;2023-05-07T03:07:06;9.30;99.90
5061;DHT22;2549;52.128;21.068;2023-05-07T03:09:32;9.30;99.90
5061;DHT22;2549;52.128;21.068;2023-05-07T03:11:59;9.30;99.90
5061;DHT22;2549;52.128;21.068;2023-05-07T03:14:28;9.40;99.90
5061;DHT22;2549;52.128;21.068;2023-05-07T03:16:55;9.30;99.90
5061;DHT22;2549;52.128;21.068;2023-05-07T03:19:21;9.30;99.90
5061;DHT22;2549;52.128;21.068;2023-05-07T03:21:48;9.30;99.90
5061;DHT22;2549;52.128;21.068;2023-05-07T03:24:15;9.30;99.90
5061;DHT22;2549;52.128;21.068;2023-05-07T03:26:42;9.30;99.90
5061;DHT22;2549;52.128;21.068;2023-05-07T03:29:09;9.30;99.90
5061;DHT22;2549;52.128;21.068;2023-05-07T03:31:36;9.30;99.90
5061;DHT22;2549;52.128;21.068;2023-05-07T03:34:04;9.20;99.90
5061;DHT22;2549;52.128;21.068;2023-05-07T03:36:31;9.10;99.90
5061;DHT22;2549;52.128;21.068;2023-05-07T03:38:57;9.20;99.90
5061;DHT22;2549;52.128;21.068;2023-05-07T03:41:24;9.20;99.90
5061;DHT22;2549;52.128;21.068;2023-05-07T03:43:52;9.20;99.90
5061;DHT22;2549;52.128;21.068;2023-05-07T03:46:19;9.30;99.90
5061;DHT22;2549;52.128;21.068;2023-05-07T03:48:46;9.30;99.90
5061;DHT22;2549;52.128;21.068;2023-05-07T03:51:13;9.30;99.90
5061;DHT22;2549;52.128;21.068;2023-05-07T03:53:40;9.40;99.90
5061;DHT22;2549;52.128;21.068;2023-05-07T03:56:07;9.40;99.90
5061;DHT22;2549;52.128;21.068;2023-05-07T03:58:33;9.40;99.90
5061;DHT22;2549;52.128;21.068;2023-05-07T04:01:01;9.40;99.90
5061;DHT22;2549;52.128;21.068;2023-05-07T04:03:29;9.40;99.90
5061;DHT22;2549;52.128;21.068;2023-05-07T04:05:56;9.20;99.90
5061;DHT22;2549;52.128;21.068;2023-05-07T04:08:23;9.20;99.90
5061;DHT22;2549;52.128;21.068;2023-05-07T04:10:57;9.20;99.90
5061;DHT22;2549;52.128;21.068;2023-05-07T04:13:25;9.30;99.90
5061;DHT22;2549;52.128;21.068;2023-05-07T04:15:52;9.30;99.90
5061;DHT22;2549;52.128;21.068;2023-05-07T04:18:19;9.30;99.90
5061;DHT22;2549;52.128;21.068;2023-05-07T04:20:47;9.30;99.90
5061;DHT22;2549;52.128;21.068;2023-05-07T04:23:16;9.30;99.90
5061;DHT22;2549;52.128;21.068;2023-05-07T04:25:42;9.30;99.90
5061;DHT22;2549;52.128;21.068;2023-05-07T04:28:09;9.30;99.90
5061;DHT22;2549;52.128;21.068;2023-05-07T04:30:36;9.40;99.90
5061;DHT22;2549;52.128;21.068;2023-05-07T04:33:03;9.50;99.90
5061;DHT22;2549;52.128;21.068;2023-05-07T04:35:29;9.50;99.90
5061;DHT22;2549;52.128;21.068;2023-05-07T04:38:00;9.40;99.90
5061;DHT22;2549;52.128;21.068;2023-05-07T04:40:28;9.40;99.90
5061;DHT22;2549;52.128;21.068;2023-05-07T04:42:55;9.40;99.90
5061;DHT22;2549;52.128;21.068;2023-05-07T04:45:23;9.30;99.90
5061;DHT22;2549;52.128;21.068;2023-05-07T04:47:50;9.30;99.90
5061;DHT22;2549;52.128;21.068;2023-05-07T04:50:18;9.30;99.90
5061;DHT22;2549;52.128;21.068;2023-05-07T04:52:46;9.30;99.90
5061;DHT22;2549;52.128;21.068;2023-05-07T04:55:16;9.30;99.90
5061;DHT22;2549;52.128;21.068;2023-05-07T04:57:43;9.30;99.90
5061;DHT22;2549;52.128;21.068;2023-05-07T05:00:10;9.30;99.90
5061;DHT22;2549;52.128;21.068;2023-05-07T05:02:38;9.30;99.90
5061;DHT22;2549;52.128;21.068;2023-05-07T05:05:05;9.30;99.90
5061;DHT22;2549;52.128;21.068;2023-05-07T05:07:32;9.40;99.90
5061;DHT22;2549;52.128;21.068;2023-05-07T05:09:59;9.40;99.90
5061;DHT22;2549;52.128;21.068;2023-05-07T05:12:26;9.40;99.90
5061;DHT22;2549;52.128;21.068;2023-05-07T05:14:53;9.40;99.90
5061;DHT22;2549;52.128;21.068;2023-05-07T05:17:20;9.40;99.90
5061;DHT22;2549;52.128;21.068;2023-05-07T05:19:47;9.40;99.90
5061;DHT22;2549;52.128;21.068;2023-05-07T05:22:14;9.50;99.90
5061;DHT22;2549;52.128;21.068;2023-05-07T05:24:41;9.50;99.90
5061;DHT22;2549;52.128;21.068;2023-05-07T05:27:08;9.50;99.90
5061;DHT22;2549;52.128;21.068;2023-05-07T05:29:35;9.50;99.90
5061;DHT22;2549;52.128;21.068;2023-05-07T05:32:02;9.50;99.90
5061;DHT22;2549;52.128;21.068;2023-05-07T05:34:29;9.50;99.90
5061;DHT22;2549;52.128;21.068;2023-05-07T05:36:56;9.50;99.90
5061;DHT22;2549;52.128;21.068;2023-05-07T05:39:23;9.40;99.90
5061;DHT22;2549;52.128;21.068;2023-05-07T05:41:50;9.40;99.90
5061;DHT22;2549;52.128;21.068;2023-05-07T05:44:17;9.40;99.90
5061;DHT22;2549;52.128;21.068;2023-05-07T05:46:44;9.40;99.90
5061;DHT22;2549;52.128;21.068;2023-05-07T05:49:11;9.50;99.90
5061;DHT22;2549;52.128;21.068;2023-05-07T05:51:37;9.60;99.90
5061;DHT22;2549;52.128;21.068;2023-05-07T05:54:04;9.60;99.90
5061;DHT22;2549;52.128;21.068;2023-05-07T05:56:31;9.60;99.90
5061;DHT22;2549;52.128;21.068;2023-05-07T05:58:58;9.60;99.90
5061;DHT22;2549;52.128;21.068;2023-05-07T06:01:25;9.70;99.90
5061;DHT22;2549;52.128;21.068;2023-05-07T06:03:52;9.70;99.90
5061;DHT22;2549;52.128;21.068;2023-05-07T06:06:19;9.70;99.90
5061;DHT22;2549;52.128;21.068;2023-05-07T06:08:46;9.80;99.90
5061;DHT22;2549;52.128;21.068;2023-05-07T06:11:13;9.80;99.90
5061;DHT22;2549;52.128;21.068;2023-05-07T06:13:39;9.80;99.90
5061;DHT22;2549;52.128;21.068;2023-05-07T06:16:06;9.90;99.90
5061;DHT22;2549;52.128;21.068;2023-05-07T06:18:33;10.00;99.90
5061;DHT22;2549;52.128;21.068;2023-05-07T06:21:02;10.00;99.90
5061;DHT22;2549;52.128;21.068;2023-05-07T06:23:29;10.10;99.90
5061;DHT22;2549;52.128;21.068;2023-05-07T06:25:56;10.10;99.90
5061;DHT22;2549;52.128;21.068;2023-05-07T06:28:23;10.20;99.90
5061;DHT22;2549;52.128;21.068;2023-05-07T06:30:50;10.20;99.90
5061;DHT22;2549;52.128;21.068;2023-05-07T06:33:17;10.10;99.90
5061;DHT22;2549;52.128;21.068;2023-05-07T06:35:44;10.10;99.90
5061;DHT22;2549;52.128;21.068;2023-05-07T06:38:11;10.20;99.90
5061;DHT22;2549;52.128;21.068;2023-05-07T06:40:38;10.30;99.90
5061;DHT22;2549;52.128;21.068;2023-05-07T06:43:05;10.50;99.90
5061;DHT22;2549;52.128;21.068;2023-05-07T06:45:32;10.50;99.90
5061;DHT22;2549;52.128;21.068;2023-05-07T06:47:59;10.50;99.90
5061;DHT22;2549;52.128;21.068;2023-05-07T06:50:26;10.50;99.90
5061;DHT22;2549;52.128;21.068;2023-05-07T06:52:53;10.50;99.90
5061;DHT22;2549;52.128;21.068;2023-05-07T06:55:19;10.50;99.90
5061;DHT22;2549;52.128;21.068;2023-05-07T06:57:46;10.60;99.90
5061;DHT22;2549;52.128;21.068;2023-05-07T07:00:13;10.70;99.90
5061;DHT22;2549;52.128;21.068;2023-05-07T07:02:40;10.60;99.90
5061;DHT22;2549;52.128;21.068;2023-05-07T07:05:07;10.70;99.90
5061;DHT22;2549;52.128;21.068;2023-05-07T07:07:34;10.70;99.90
5061;DHT22;2549;52.128;21.068;2023-05-07T07:10:01;10.70;99.90
5061;DHT22;2549;52.128;21.068;2023-05-07T07:12:30;10.70;99.90
5061;DHT22;2549;52.128;21.068;2023-05-07T07:14:57;10.80;99.90
5061;DHT22;2549;52.128;21.068;2023-05-07T07:17:24;10.80;99.90
5061;DHT22;2549;52.128;21.068;2023-05-07T07:19:51;10.80;99.90
5061;DHT22;2549;52.128;21.068;2023-05-07T07:22:18;10.80;99.90
5061;DHT22;2549;52.128;21.068;2023-05-07T07:24:45;10.70;99.90
5061;DHT22;2549;52.128;21.068;2023-05-07T07:27:11;10.70;99.90
5061;DHT22;2549;52.128;21.068;2023-05-07T07:29:38;10.80;99.90
5061;DHT22;2549;52.128;21.068;2023-05-07T07:32:05;10.80;99.90
5061;DHT22;2549;52.128;21.068;2023-05-07T07:34:32;10.80;99.90
5061;DHT22;2549;52.128;21.068;2023-05-07T07:36:59;10.90;99.90
5061;DHT22;2549;52.128;21.068;2023-05-07T07:39:32;11.00;99.90
5061;DHT22;2549;52.128;21.068;2023-05-07T07:42:00;10.90;99.90
5061;DHT22;2549;52.128;21.068;2023-05-07T07:44:28;11.00;99.90
5061;DHT22;2549;52.128;21.068;2023-05-07T07:46:55;11.00;99.90
5061;DHT22;2549;52.128;21.068;2023-05-07T07:49:22;11.10;99.80
5061;DHT22;2549;52.128;21.068;2023-05-07T07:51:49;11.00;99.60
5061;DHT22;2549;52.128;21.068;2023-05-07T07:54:16;11.00;99.80
5061;DHT22;2549;52.128;21.068;2023-05-07T07:56:43;11.10;99.90
5061;DHT22;2549;52.128;21.068;2023-05-07T07:59:10;11.10;99.90
5061;DHT22;2549;52.128;21.068;2023-05-07T08:01:36;11.20;99.60
5061;DHT22;2549;52.128;21.068;2023-05-07T08:04:03;11.10;99.30
5061;DHT22;2549;52.128;21.068;2023-05-07T08:06:32;11.20;99.30
5061;DHT22;2549;52.128;21.068;2023-05-07T08:08:59;11.10;99.40
5061;DHT22;2549;52.128;21.068;2023-05-07T08:11:26;11.10;99.20
5061;DHT22;2549;52.128;21.068;2023-05-07T08:13:54;11.20;99.10
5061;DHT22;2549;52.128;21.068;2023-05-07T08:16:21;11.20;98.90
5061;DHT22;2549;52.128;21.068;2023-05-07T08:18:50;11.20;98.80
5061;DHT22;2549;52.128;21.068;2023-05-07T08:21:17;11.30;98.90
5061;DHT22;2549;52.128;21.068;2023-05-07T08:23:43;11.50;98.90
5061;DHT22;2549;52.128;21.068;2023-05-07T08:26:10;11.40;98.20
5061;DHT22;2549;52.128;21.068;2023-05-07T08:28:37;11.40;98.10
5061;DHT22;2549;52.128;21.068;2023-05-07T08:31:04;11.30;98.20
5061;DHT22;2549;52.128;21.068;2023-05-07T08:33:31;11.30;98.10
5061;DHT22;2549;52.128;21.068;2023-05-07T08:35:58;11.20;98.20
5061;DHT22;2549;52.128;21.068;2023-05-07T08:38:24;11.30;98.30
5061;DHT22;2549;52.128;21.068;2023-05-07T08:40:51;11.30;98.10
5061;DHT22;2549;52.128;21.068;2023-05-07T08:43:19;11.30;98.10
5061;DHT22;2549;52.128;21.068;2023-05-07T08:45:49;11.30;98.00
5061;DHT22;2549;52.128;21.068;2023-05-07T08:48:22;11.40;98.10
5061;DHT22;2549;52.128;21.068;2023-05-07T08:50:51;11.40;98.00
5061;DHT22;2549;52.128;21.068;2023-05-07T08:53:19;11.40;97.90
5061;DHT22;2549;52.128;21.068;2023-05-07T08:55:47;11.40;98.00
5061;DHT22;2549;52.128;21.068;2023-05-07T08:58:14;11.40;97.70
5061;DHT22;2549;52.128;21.068;2023-05-07T09:00:42;11.40;97.80
5061;DHT22;2549;52.128;21.068;2023-05-07T09:03:08;11.40;97.70
5061;DHT22;2549;52.128;21.068;2023-05-07T09:05:39;11.40;97.60
5061;DHT22;2549;52.128;21.068;2023-05-07T09:08:08;11.50;97.50
5061;DHT22;2549;52.128;21.068;2023-05-07T09:10:35;11.40;97.20
5061;DHT22;2549;52.128;21.068;2023-05-07T09:13:02;11.30;97.40
5061;DHT22;2549;52.128;21.068;2023-05-07T09:15:29;11.40;97.20
5061;DHT22;2549;52.128;21.068;2023-05-07T09:18:00;11.40;97.30
5061;DHT22;2549;52.128;21.068;2023-05-07T09:20:30;11.50;97.10
5061;DHT22;2549;52.128;21.068;2023-05-07T09:22:57;11.60;97.10
5061;DHT22;2549;52.128;21.068;2023-05-07T09:25:31;11.50;96.40
5061;DHT22;2549;52.128;21.068;2023-05-07T09:27:59;11.50;96.90
5061;DHT22;2549;52.128;21.068;2023-05-07T09:30:33;11.60;96.80
5061;DHT22;2549;52.128;21.068;2023-05-07T09:33:02;11.70;96.80
5061;DHT22;2549;52.128;21.068;2023-05-07T09:35:30;11.80;96.90
5061;DHT22;2549;52.128;21.068;2023-05-07T09:37:58;11.90;96.70
5061;DHT22;2549;52.128;21.068;2023-05-07T09:40:30;11.90;96.30
5061;DHT22;2549;52.128;21.068;2023-05-07T09:43:12;11.80;95.50
5061;DHT22;2549;52.128;21.068;2023-05-07T09:45:41;11.80;95.20
5061;DHT22;2549;52.128;21.068;2023-05-07T09:48:07;11.80;95.40
5061;DHT22;2549;52.128;21.068;2023-05-07T09:50:48;11.80;95.50
5061;DHT22;2549;52.128;21.068;2023-05-07T09:53:16;11.80;95.60
5061;DHT22;2549;52.128;21.068;2023-05-07T09:55:43;11.70;94.90
5061;DHT22;2549;52.128;21.068;2023-05-07T09:58:12;11.70;94.70
5061;DHT22;2549;52.128;21.068;2023-05-07T10:00:41;11.80;94.90
5061;DHT22;2549;52.128;21.068;2023-05-07T10:03:09;11.80;95.00
5061;DHT22;2549;52.128;21.068;2023-05-07T10:05:37;11.90;94.80
5061;DHT22;2549;52.128;21.068;2023-05-07T10:08:05;12.00;94.60
5061;DHT22;2549;52.128;21.068;2023-05-07T10:10:33;12.00;94.40
5061;DHT22;2549;52.128;21.068;2023-05-07T10:13:03;12.10;94.30
5061;DHT22;2549;52.128;21.068;2023-05-07T10:15:38;12.10;94.10
5061;DHT22;2549;52.128;21.068;2023-05-07T10:18:06;12.10;94.00
5061;DHT22;2549;52.128;21.068;2023-05-07T10:20:35;12.10;93.80
5061;DHT22;2549;52.128;21.068;2023-05-07T10:23:04;12.10;94.00
5061;DHT22;2549;52.128;21.068;2023-05-07T10:25:32;12.10;94.10
5061;DHT22;2549;52.128;21.068;2023-05-07T10:28:04;12.20;94.20
5061;DHT22;2549;52.128;21.068;2023-05-07T10:33:29;12.10;94.00
5061;DHT22;2549;52.128;21.068;2023-05-07T10:36:01;12.10;94.10
5061;DHT22;2549;52.128;21.068;2023-05-07T10:38:31;12.10;93.60
5061;DHT22;2549;52.128;21.068;2023-05-07T10:40:58;12.00;93.50
5061;DHT22;2549;52.128;21.068;2023-05-07T10:43:25;12.00;93.90
5061;DHT22;2549;52.128;21.068;2023-05-07T10:46:11;12.10;93.90
5061;DHT22;2549;52.128;21.068;2023-05-07T10:51:29;12.00;93.80
5061;DHT22;2549;52.128;21.068;2023-05-07T10:56:37;12.00;93.70
5061;DHT22;2549;52.128;21.068;2023-05-07T10:59:29;12.00;93.60
5061;DHT22;2549;52.128;21.068;2023-05-07T11:01:59;12.10;93.90
5061;DHT22;2549;52.128;21.068;2023-05-07T11:04:26;12.20;93.90
5061;DHT22;2549;52.128;21.068;2023-05-07T11:07:21;12.20;93.60
5061;DHT22;2549;52.128;21.068;2023-05-07T11:15:10;12.30;93.30
5061;DHT22;2549;52.128;21.068;2023-05-07T11:17:57;12.20;93.10
5061;DHT22;2549;52.128;21.068;2023-05-07T11:26:06;12.20;93.20
5061;DHT22;2549;52.128;21.068;2023-05-07T11:28:38;12.20;93.00
5061;DHT22;2549;52.128;21.068;2023-05-07T11:31:06;12.30;93.10
5061;DHT22;2549;52.128;21.068;2023-05-07T11:33:34;12.30;92.90
5061;DHT22;2549;52.128;21.068;2023-05-07T11:36:05;12.20;92.90
5061;DHT22;2549;52.128;21.068;2023-05-07T11:38:36;12.20;92.90
5061;DHT22;2549;52.128;21.068;2023-05-07T11:41:03;12.20;93.10
5061;DHT22;2549;52.128;21.068;2023-05-07T11:43:32;12.40;93.20
5061;DHT22;2549;52.128;21.068;2023-05-07T11:46:09;12.40;93.50
5061;DHT22;2549;52.128;21.068;2023-05-07T11:48:38;12.50;93.20
5061;DHT22;2549;52.128;21.068;2023-05-07T11:51:06;12.60;92.80
5061;DHT22;2549;52.128;21.068;2023-05-07T11:53:37;12.60;92.90
5061;DHT22;2549;52.128;21.068;2023-05-07T11:56:12;12.70;92.70
5061;DHT22;2549;52.128;21.068;2023-05-07T11:58:40;12.80;92.70
5061;DHT22;2549;52.128;21.068;2023-05-07T12:01:09;12.80;92.60
5061;DHT22;2549;52.128;21.068;2023-05-07T12:03:37;12.70;92.70
5061;DHT22;2549;52.128;21.068;2023-05-07T12:06:07;12.80;93.10
5061;DHT22;2549;52.128;21.068;2023-05-07T12:08:39;12.80;92.80
5061;DHT22;2549;52.128;21.068;2023-05-07T12:11:21;12.90;92.60
5061;DHT22;2549;52.128;21.068;2023-05-07T12:13:49;12.90;92.30
5061;DHT22;2549;52.128;21.068;2023-05-07T12:16:16;13.00;92.00
5061;DHT22;2549;52.128;21.068;2023-05-07T12:18:44;13.10;92.30
5061;DHT22;2549;52.128;21.068;2023-05-07T12:21:11;13.10;92.10
5061;DHT22;2549;52.128;21.068;2023-05-07T12:23:40;13.10;92.00
5061;DHT22;2549;52.128;21.068;2023-05-07T12:26:07;13.10;91.80
5061;DHT22;2549;52.128;21.068;2023-05-07T12:28:38;13.10;91.70
5061;DHT22;2549;52.128;21.068;2023-05-07T12:31:06;13.00;91.60
5061;DHT22;2549;52.128;21.068;2023-05-07T12:33:34;13.00;92.00
5061;DHT22;2549;52.128;21.068;2023-05-07T12:36:06;13.10;92.00
5061;DHT22;2549;52.128;21.068;2023-05-07T12:38:36;13.10;92.10
5061;DHT22;2549;52.128;21.068;2023-05-07T12:41:04;13.20;92.00
5061;DHT22;2549;52.128;21.068;2023-05-07T12:43:31;13.30;91.70
5061;DHT22;2549;52.128;21.068;2023-05-07T12:46:01;13.30;91.30
5061;DHT22;2549;52.128;21.068;2023-05-07T12:48:28;13.30;91.20
5061;DHT22;2549;52.128;21.068;2023-05-07T12:50:57;13.20;91.40
5061;DHT22;2549;52.128;21.068;2023-05-07T12:53:26;13.30;91.40
5061;DHT22;2549;52.128;21.068;2023-05-07T12:55:57;13.30;91.50
5061;DHT22;2549;52.128;21.068;2023-05-07T12:58:26;13.30;91.30
5061;DHT22;2549;52.128;21.068;2023-05-07T13:00:55;13.30;91.00
5061;DHT22;2549;52.128;21.068;2023-05-07T13:03:31;13.30;91.10
5061;DHT22;2549;52.128;21.068;2023-05-07T13:06:07;13.30;91.00
5061;DHT22;2549;52.128;21.068;2023-05-07T13:08:38;13.30;90.90
5061;DHT22;2549;52.128;21.068;2023-05-07T13:11:08;13.30;90.90
5061;DHT22;2549;52.128;21.068;2023-05-07T13:13:37;13.40;91.00
5061;DHT22;2549;52.128;21.068;2023-05-07T13:16:05;13.40;90.80
5061;DHT22;2549;52.128;21.068;2023-05-07T13:18:33;13.40;90.40
5061;DHT22;2549;52.128;21.068;2023-05-07T13:21:01;13.40;90.70
5061;DHT22;2549;52.128;21.068;2023-05-07T13:23:28;13.50;90.60
5061;DHT22;2549;52.128;21.068;2023-05-07T13:25:55;13.50;90.70
5061;DHT22;2549;52.128;21.068;2023-05-07T13:28:26;13.50;90.60
5061;DHT22;2549;52.128;21.068;2023-05-07T13:30:53;13.50;91.10
5061;DHT22;2549;52.128;21.068;2023-05-07T13:33:21;13.60;90.70
5061;DHT22;2549;52.128;21.068;2023-05-07T13:35:48;13.60;90.80
5061;DHT22;2549;52.128;21.068;2023-05-07T13:38:15;13.50;90.40
5061;DHT22;2549;52.128;21.068;2023-05-07T13:40:42;13.50;90.60
5061;DHT22;2549;52.128;21.068;2023-05-07T13:43:09;13.50;90.40
5061;DHT22;2549;52.128;21.068;2023-05-07T13:45:37;13.60;90.30
5061;DHT22;2549;52.128;21.068;2023-05-07T13:48:04;13.50;90.10
5061;DHT22;2549;52.128;21.068;2023-05-07T13:50:31;13.40;90.20
5061;DHT22;2549;52.128;21.068;2023-05-07T13:52:58;13.50;90.40
5061;DHT22;2549;52.128;21.068;2023-05-07T13:55:25;13.60;89.60
5061;DHT22;2549;52.128;21.068;2023-05-07T13:58:00;13.70;89.20
5061;DHT22;2549;52.128;21.068;2023-05-07T14:00:28;13.90;90.20
5061;DHT22;2549;52.128;21.068;2023-05-07T14:02:56;14.10;90.60
5061;DHT22;2549;52.128;21.068;2023-05-07T14:05:23;14.20;89.30
5061;DHT22;2549;52.128;21.068;2023-05-07T14:07:51;14.10;88.50
5061;DHT22;2549;52.128;21.068;2023-05-07T14:10:19;14.10;87.20
5061;DHT22;2549;52.128;21.068;2023-05-07T14:12:46;14.10;86.40
5061;DHT22;2549;52.128;21.068;2023-05-07T14:15:14;14.10;87.00
5061;DHT22;2549;52.128;21.068;2023-05-07T14:17:40;14.10;87.50
5061;DHT22;2549;52.128;21.068;2023-05-07T14:20:08;14.10;88.20
5061;DHT22;2549;52.128;21.068;2023-05-07T14:22:35;14.10;88.60
5061;DHT22;2549;52.128;21.068;2023-05-07T14:25:02;14.10;88.70
5061;DHT22;2549;52.128;21.068;2023-05-07T14:27:33;14.20;88.70
5061;DHT22;2549;52.128;21.068;2023-05-07T14:29:59;14.20;88.10
5061;DHT22;2549;52.128;21.068;2023-05-07T14:32:26;14.20;87.80
5061;DHT22;2549;52.128;21.068;2023-05-07T14:34:54;14.10;87.30
5061;DHT22;2549;52.128;21.068;2023-05-07T14:37:20;14.10;86.80
5061;DHT22;2549;52.128;21.068;2023-05-07T14:39:47;14.10;86.80
5061;DHT22;2549;52.128;21.068;2023-05-07T14:42:17;14.20;87.30
5061;DHT22;2549;52.128;21.068;2023-05-07T14:44:44;14.10;87.00
5061;DHT22;2549;52.128;21.068;2023-05-07T14:47:12;14.20;87.50
5061;DHT22;2549;52.128;21.068;2023-05-07T14:49:39;14.30;87.40
5061;DHT22;2549;52.128;21.068;2023-05-07T14:52:07;14.40;87.30
5061;DHT22;2549;52.128;21.068;2023-05-07T14:54:37;14.40;85.80
5061;DHT22;2549;52.128;21.068;2023-05-07T14:57:06;14.40;86.00
5061;DHT22;2549;52.128;21.068;2023-05-07T14:59:33;14.40;85.50
5061;DHT22;2549;52.128;21.068;2023-05-07T15:02:00;14.40;85.50
5061;DHT22;2549;52.128;21.068;2023-05-07T15:04:31;14.40;86.00
5061;DHT22;2549;52.128;21.068;2023-05-07T15:06:58;14.30;85.20
5061;DHT22;2549;52.128;21.068;2023-05-07T15:09:25;14.30;85.50
5061;DHT22;2549;52.128;21.068;2023-05-07T15:11:52;14.30;86.30
5061;DHT22;2549;52.128;21.068;2023-05-07T15:14:19;14.20;84.90
5061;DHT22;2549;52.128;21.068;2023-05-07T15:16:48;14.30;85.20
5061;DHT22;2549;52.128;21.068;2023-05-07T15:19:15;14.20;85.10
5061;DHT22;2549;52.128;21.068;2023-05-07T15:21:43;14.20;84.50
5061;DHT22;2549;52.128;21.068;2023-05-07T15:24:10;14.20;84.30
5061;DHT22;2549;52.128;21.068;2023-05-07T15:26:37;14.10;83.50
5061;DHT22;2549;52.128;21.068;2023-05-07T15:29:04;14.10;83.70
5061;DHT22;2549;52.128;21.068;2023-05-07T15:31:36;14.10;84.20
5061;DHT22;2549;52.128;21.068;2023-05-07T15:34:04;14.10;85.60
5061;DHT22;2549;52.128;21.068;2023-05-07T15:36:31;14.20;85.00
5061;DHT22;2549;52.128;21.068;2023-05-07T15:38:59;14.30;85.10
5061;DHT22;2549;52.128;21.068;2023-05-07T15:41:25;14.30;85.20
5061;DHT22;2549;52.128;21.068;2023-05-07T15:43:52;14.30;85.10
5061;DHT22;2549;52.128;21.068;2023-05-07T15:46:21;14.30;85.40
5061;DHT22;2549;52.128;21.068;2023-05-07T15:48:50;14.30;85.60
5061;DHT22;2549;52.128;21.068;2023-05-07T15:51:18;14.30;84.50
5061;DHT22;2549;52.128;21.068;2023-05-07T15:53:44;14.20;83.30
5061;DHT22;2549;52.128;21.068;2023-05-07T15:56:11;14.30;83.80
5061;DHT22;2549;52.128;21.068;2023-05-07T15:58:38;14.30;83.90
5061;DHT22;2549;52.128;21.068;2023-05-07T16:01:05;14.30;84.20
5061;DHT22;2549;52.128;21.068;2023-05-07T16:03:32;14.30;84.10
5061;DHT22;2549;52.128;21.068;2023-05-07T16:05:59;14.30;83.30
5061;DHT22;2549;52.128;21.068;2023-05-07T16:08:26;14.30;83.80
5061;DHT22;2549;52.128;21.068;2023-05-07T16:10:53;14.30;83.70
5061;DHT22;2549;52.128;21.068;2023-05-07T16:13:20;14.30;84.00
5061;DHT22;2549;52.128;21.068;2023-05-07T16:15:55;14.30;83.40
5061;DHT22;2549;52.128;21.068;2023-05-07T16:18:24;14.20;83.70